sensor_id;sensor_type;location;lat;lon;timestamp;P1;durP1;ratioP1;P2;durP2;ratioP2
65753;SDS011;52488;47.502;18.940;2023-03-02T00:00:03;12.40;;;4.78;;
65753;SDS011;52488;47.502;18.940;2023-03-02T00:01:19;7.90;;;4.37;;
65753;SDS011;52488;47.502;18.940;2023-03-02T00:02:24;11.60;;;4.80;;
65753;SDS011;52488;47.502;18.940;2023-03-02T00:03:27;10.38;;;4.93;;
65753;SDS011;52488;47.502;18.940;2023-03-02T00:04:40;7.75;;;4.50;;
65753;SDS011;52488;47.502;18.940;2023-03-02T00:05:47;11.12;;;4.85;;
65753;SDS011;52488;47.502;18.940;2023-03-02T00:06:51;8.63;;;4.87;;
65753;SDS011;52488;47.502;18.940;2023-03-02T00:07:58;8.40;;;4.40;;
65753;SDS011;52488;47.502;18.940;2023-03-02T00:09:03;8.23;;;4.47;;
65753;SDS011;52488;47.502;18.940;2023-03-02T00:10:08;10.63;;;4.28;;
65753;SDS011;52488;47.502;18.940;2023-03-02T00:11:14;9.75;;;4.60;;
65753;SDS011;52488;47.502;18.940;2023-03-02T00:12:17;10.48;;;4.95;;
65753;SDS011;52488;47.502;18.940;2023-03-02T00:13:21;10.60;;;4.80;;
65753;SDS011;52488;47.502;18.940;2023-03-02T00:14:24;9.77;;;5.20;;
65753;SDS011;52488;47.502;18.940;2023-03-02T00:15:27;9.18;;;4.40;;
65753;SDS011;52488;47.502;18.940;2023-03-02T00:16:31;9.25;;;4.60;;
65753;SDS011;52488;47.502;18.940;2023-03-02T00:17:34;11.25;;;4.55;;
65753;SDS011;52488;47.502;18.940;2023-03-02T00:18:39;9.55;;;4.78;;
65753;SDS011;52488;47.502;18.940;2023-03-02T00:19:42;10.35;;;4.75;;
65753;SDS011;52488;47.502;18.940;2023-03-02T00:20:46;8.70;;;4.68;;
65753;SDS011;52488;47.502;18.940;2023-03-02T00:21:49;7.90;;;4.30;;
65753;SDS011;52488;47.502;18.940;2023-03-02T00:22:52;7.97;;;4.28;;
65753;SDS011;52488;47.502;18.940;2023-03-02T00:23:55;9.82;;;4.70;;
65753;SDS011;52488;47.502;18.940;2023-03-02T00:24:58;8.98;;;4.62;;
65753;SDS011;52488;47.502;18.940;2023-03-02T00:26:01;9.70;;;4.45;;
65753;SDS011;52488;47.502;18.940;2023-03-02T00:27:04;10.10;;;4.50;;
65753;SDS011;52488;47.502;18.940;2023-03-02T00:28:07;9.05;;;4.43;;
65753;SDS011;52488;47.502;18.940;2023-03-02T00:29:10;8.48;;;4.87;;
65753;SDS011;52488;47.502;18.940;2023-03-02T00:30:14;7.22;;;4.90;;
65753;SDS011;52488;47.502;18.940;2023-03-02T00:31:19;11.15;;;4.87;;
65753;SDS011;52488;47.502;18.940;2023-03-02T00:32:22;6.70;;;4.07;;
65753;SDS011;52488;47.502;18.940;2023-03-02T00:33:26;9.55;;;5.00;;
65753;SDS011;52488;47.502;18.940;2023-03-02T00:34:29;9.48;;;5.10;;
65753;SDS011;52488;47.502;18.940;2023-03-02T00:35:37;7.72;;;4.45;;
65753;SDS011;52488;47.502;18.940;2023-03-02T00:36:40;11.15;;;4.90;;
65753;SDS011;52488;47.502;18.940;2023-03-02T00:37:44;9.73;;;4.50;;
65753;SDS011;52488;47.502;18.940;2023-03-02T00:38:50;9.10;;;5.03;;
65753;SDS011;52488;47.502;18.940;2023-03-02T00:39:53;9.50;;;4.70;;
65753;SDS011;52488;47.502;18.940;2023-03-02T00:40:56;7.85;;;4.75;;
65753;SDS011;52488;47.502;18.940;2023-03-02T00:42:01;9.30;;;4.82;;
65753;SDS011;52488;47.502;18.940;2023-03-02T00:43:04;10.57;;;4.80;;
65753;SDS011;52488;47.502;18.940;2023-03-02T00:44:07;9.88;;;4.85;;
65753;SDS011;52488;47.502;18.940;2023-03-02T00:45:10;10.23;;;5.10;;
65753;SDS011;52488;47.502;18.940;2023-03-02T00:46:14;10.45;;;5.22;;
65753;SDS011;52488;47.502;18.940;2023-03-02T00:47:19;11.77;;;4.97;;
65753;SDS011;52488;47.502;18.940;2023-03-02T00:48:23;9.82;;;5.70;;
65753;SDS011;52488;47.502;18.940;2023-03-02T00:49:27;9.48;;;5.35;;
65753;SDS011;52488;47.502;18.940;2023-03-02T00:50:31;8.90;;;5.07;;
65753;SDS011;52488;47.502;18.940;2023-03-02T00:51:34;11.98;;;5.25;;
65753;SDS011;52488;47.502;18.940;2023-03-02T00:52:36;11.52;;;5.30;;
65753;SDS011;52488;47.502;18.940;2023-03-02T00:53:40;9.70;;;4.90;;
65753;SDS011;52488;47.502;18.940;2023-03-02T00:54:43;10.02;;;5.18;;
65753;SDS011;52488;47.502;18.940;2023-03-02T00:55:53;9.05;;;4.82;;
65753;SDS011;52488;47.502;18.940;2023-03-02T00:56:57;8.32;;;4.62;;
65753;SDS011;52488;47.502;18.940;2023-03-02T00:58:00;6.72;;;4.18;;
65753;SDS011;52488;47.502;18.940;2023-03-02T00:59:08;9.48;;;4.95;;
65753;SDS011;52488;47.502;18.940;2023-03-02T01:00:28;11.45;;;4.78;;
65753;SDS011;52488;47.502;18.940;2023-03-02T01:01:32;10.38;;;4.60;;
65753;SDS011;52488;47.502;18.940;2023-03-02T01:02:35;9.73;;;4.30;;
65753;SDS011;52488;47.502;18.940;2023-03-02T01:03:46;11.23;;;4.62;;
65753;SDS011;52488;47.502;18.940;2023-03-02T01:04:49;10.70;;;4.85;;
65753;SDS011;52488;47.502;18.940;2023-03-02T01:05:54;8.05;;;4.57;;
65753;SDS011;52488;47.502;18.940;2023-03-02T01:06:58;9.52;;;4.85;;
65753;SDS011;52488;47.502;18.940;2023-03-02T01:08:03;8.52;;;4.97;;
65753;SDS011;52488;47.502;18.940;2023-03-02T01:09:07;10.30;;;4.80;;
65753;SDS011;52488;47.502;18.940;2023-03-02T01:10:11;11.52;;;5.25;;
65753;SDS011;52488;47.502;18.940;2023-03-02T01:11:16;12.90;;;5.05;;
65753;SDS011;52488;47.502;18.940;2023-03-02T01:12:22;10.07;;;5.25;;
65753;SDS011;52488;47.502;18.940;2023-03-02T01:13:25;10.52;;;4.87;;
65753;SDS011;52488;47.502;18.940;2023-03-02T01:14:28;8.05;;;4.70;;
65753;SDS011;52488;47.502;18.940;2023-03-02T01:15:31;10.18;;;4.85;;
65753;SDS011;52488;47.502;18.940;2023-03-02T01:16:35;10.45;;;4.43;;
65753;SDS011;52488;47.502;18.940;2023-03-02T01:17:38;10.32;;;4.95;;
65753;SDS011;52488;47.502;18.940;2023-03-02T01:18:44;11.77;;;5.00;;
65753;SDS011;52488;47.502;18.940;2023-03-02T01:19:47;10.93;;;4.90;;
65753;SDS011;52488;47.502;18.940;2023-03-02T01:20:58;8.95;;;4.97;;
65753;SDS011;52488;47.502;18.940;2023-03-02T01:22:04;10.45;;;5.10;;
65753;SDS011;52488;47.502;18.940;2023-03-02T01:23:08;11.55;;;5.32;;
65753;SDS011;52488;47.502;18.940;2023-03-02T01:24:11;10.32;;;4.90;;
65753;SDS011;52488;47.502;18.940;2023-03-02T01:25:14;11.80;;;5.10;;
65753;SDS011;52488;47.502;18.940;2023-03-02T01:26:18;8.20;;;4.37;;
65753;SDS011;52488;47.502;18.940;2023-03-02T01:27:21;11.48;;;5.65;;
65753;SDS011;52488;47.502;18.940;2023-03-02T01:28:24;12.48;;;5.47;;
65753;SDS011;52488;47.502;18.940;2023-03-02T01:29:27;9.23;;;5.00;;
65753;SDS011;52488;47.502;18.940;2023-03-02T01:30:30;11.23;;;5.30;;
65753;SDS011;52488;47.502;18.940;2023-03-02T01:31:33;9.63;;;5.28;;
65753;SDS011;52488;47.502;18.940;2023-03-02T01:32:36;10.02;;;4.80;;
65753;SDS011;52488;47.502;18.940;2023-03-02T01:33:39;10.60;;;5.53;;
65753;SDS011;52488;47.502;18.940;2023-03-02T01:34:42;9.63;;;5.50;;
65753;SDS011;52488;47.502;18.940;2023-03-02T01:35:46;10.57;;;5.20;;
65753;SDS011;52488;47.502;18.940;2023-03-02T01:36:49;12.02;;;5.30;;
65753;SDS011;52488;47.502;18.940;2023-03-02T01:37:52;9.55;;;5.25;;
65753;SDS011;52488;47.502;18.940;2023-03-02T01:38:56;10.88;;;5.20;;
65753;SDS011;52488;47.502;18.940;2023-03-02T01:39:59;12.35;;;5.80;;
65753;SDS011;52488;47.502;18.940;2023-03-02T01:41:08;9.80;;;5.03;;
65753;SDS011;52488;47.502;18.940;2023-03-02T01:42:12;10.50;;;5.05;;
65753;SDS011;52488;47.502;18.940;2023-03-02T01:43:15;8.82;;;5.25;;
65753;SDS011;52488;47.502;18.940;2023-03-02T01:46:55;10.32;;;4.93;;
65753;SDS011;52488;47.502;18.940;2023-03-02T01:47:58;10.57;;;5.15;;
65753;SDS011;52488;47.502;18.940;2023-03-02T01:49:10;10.45;;;5.32;;
65753;SDS011;52488;47.502;18.940;2023-03-02T01:50:16;9.13;;;5.78;;
65753;SDS011;52488;47.502;18.940;2023-03-02T01:51:23;10.10;;;5.53;;
65753;SDS011;52488;47.502;18.940;2023-03-02T01:52:30;12.88;;;5.85;;
65753;SDS011;52488;47.502;18.940;2023-03-02T01:53:36;9.75;;;5.00;;
65753;SDS011;52488;47.502;18.940;2023-03-02T01:54:39;10.15;;;5.37;;
65753;SDS011;52488;47.502;18.940;2023-03-02T01:55:44;11.82;;;5.60;;
65753;SDS011;52488;47.502;18.940;2023-03-02T01:56:52;11.20;;;5.50;;
65753;SDS011;52488;47.502;18.940;2023-03-02T01:58:01;13.27;;;6.00;;
65753;SDS011;52488;47.502;18.940;2023-03-02T01:59:06;9.48;;;4.82;;
65753;SDS011;52488;47.502;18.940;2023-03-02T02:00:15;11.48;;;5.43;;
65753;SDS011;52488;47.502;18.940;2023-03-02T02:01:22;9.57;;;4.70;;
65753;SDS011;52488;47.502;18.940;2023-03-02T02:02:25;10.48;;;5.15;;
65753;SDS011;52488;47.502;18.940;2023-03-02T02:03:28;14.90;;;5.10;;
65753;SDS011;52488;47.502;18.940;2023-03-02T02:04:33;12.10;;;5.72;;
65753;SDS011;52488;47.502;18.940;2023-03-02T02:05:42;12.10;;;5.75;;
65753;SDS011;52488;47.502;18.940;2023-03-02T02:06:58;14.82;;;5.60;;
65753;SDS011;52488;47.502;18.940;2023-03-02T02:08:05;17.73;;;5.30;;
65753;SDS011;52488;47.502;18.940;2023-03-02T02:09:10;12.10;;;4.97;;
65753;SDS011;52488;47.502;18.940;2023-03-02T02:10:16;11.77;;;5.00;;
65753;SDS011;52488;47.502;18.940;2023-03-02T02:11:19;11.82;;;5.53;;
65753;SDS011;52488;47.502;18.940;2023-03-02T02:12:23;11.90;;;5.55;;
65753;SDS011;52488;47.502;18.940;2023-03-02T02:13:26;10.52;;;4.75;;
65753;SDS011;52488;47.502;18.940;2023-03-02T02:14:29;11.02;;;5.32;;
65753;SDS011;52488;47.502;18.940;2023-03-02T02:15:32;9.43;;;4.78;;
65753;SDS011;52488;47.502;18.940;2023-03-02T02:16:36;8.23;;;4.70;;
65753;SDS011;52488;47.502;18.940;2023-03-02T02:17:40;8.23;;;4.68;;
65753;SDS011;52488;47.502;18.940;2023-03-02T02:18:45;8.95;;;4.68;;
65753;SDS011;52488;47.502;18.940;2023-03-02T02:19:58;10.30;;;4.55;;
65753;SDS011;52488;47.502;18.940;2023-03-02T02:21:12;14.18;;;4.95;;
65753;SDS011;52488;47.502;18.940;2023-03-02T02:22:19;16.05;;;5.25;;
65753;SDS011;52488;47.502;18.940;2023-03-02T02:23:41;9.57;;;4.75;;
65753;SDS011;52488;47.502;18.940;2023-03-02T02:25:21;9.73;;;4.87;;
65753;SDS011;52488;47.502;18.940;2023-03-02T02:26:53;11.15;;;4.82;;
65753;SDS011;52488;47.502;18.940;2023-03-02T02:27:57;15.45;;;5.12;;
65753;SDS011;52488;47.502;18.940;2023-03-02T02:30:10;9.48;;;4.65;;
65753;SDS011;52488;47.502;18.940;2023-03-02T02:31:21;10.27;;;4.57;;
65753;SDS011;52488;47.502;18.940;2023-03-02T02:32:30;12.15;;;4.68;;
65753;SDS011;52488;47.502;18.940;2023-03-02T02:33:37;10.43;;;4.72;;
65753;SDS011;52488;47.502;18.940;2023-03-02T02:36:11;8.55;;;4.62;;
65753;SDS011;52488;47.502;18.940;2023-03-02T02:37:55;7.43;;;4.53;;
65753;SDS011;52488;47.502;18.940;2023-03-02T02:38:53;10.45;;;4.50;;
65753;SDS011;52488;47.502;18.940;2023-03-02T02:39:58;10.45;;;4.78;;
65753;SDS011;52488;47.502;18.940;2023-03-02T02:41:04;10.40;;;4.65;;
65753;SDS011;52488;47.502;18.940;2023-03-02T02:42:34;11.12;;;5.45;;
65753;SDS011;52488;47.502;18.940;2023-03-02T02:43:38;10.10;;;5.22;;
65753;SDS011;52488;47.502;18.940;2023-03-02T02:44:41;11.63;;;5.07;;
65753;SDS011;52488;47.502;18.940;2023-03-02T02:45:45;9.32;;;5.00;;
65753;SDS011;52488;47.502;18.940;2023-03-02T02:46:50;10.65;;;5.12;;
65753;SDS011;52488;47.502;18.940;2023-03-02T02:47:54;10.90;;;5.18;;
65753;SDS011;52488;47.502;18.940;2023-03-02T02:48:59;12.00;;;5.68;;
65753;SDS011;52488;47.502;18.940;2023-03-02T02:50:04;11.95;;;5.95;;
65753;SDS011;52488;47.502;18.940;2023-03-02T02:51:12;13.85;;;5.82;;
65753;SDS011;52488;47.502;18.940;2023-03-02T02:52:24;11.30;;;5.22;;
65753;SDS011;52488;47.502;18.940;2023-03-02T02:54:42;11.30;;;6.07;;
65753;SDS011;52488;47.502;18.940;2023-03-02T02:55:49;10.75;;;5.78;;
65753;SDS011;52488;47.502;18.940;2023-03-02T02:56:56;10.27;;;5.47;;
65753;SDS011;52488;47.502;18.940;2023-03-02T02:58:01;13.45;;;6.18;;
65753;SDS011;52488;47.502;18.940;2023-03-02T02:59:27;11.35;;;6.00;;
65753;SDS011;52488;47.502;18.940;2023-03-02T03:00:37;13.07;;;6.50;;
65753;SDS011;52488;47.502;18.940;2023-03-02T03:01:41;12.50;;;6.03;;
65753;SDS011;52488;47.502;18.940;2023-03-02T03:02:45;14.13;;;6.22;;
65753;SDS011;52488;47.502;18.940;2023-03-02T03:03:59;12.25;;;6.22;;
65753;SDS011;52488;47.502;18.940;2023-03-02T03:05:04;13.60;;;6.28;;
65753;SDS011;52488;47.502;18.940;2023-03-02T03:06:11;10.05;;;5.60;;
65753;SDS011;52488;47.502;18.940;2023-03-02T03:07:21;13.05;;;6.05;;
65753;SDS011;52488;47.502;18.940;2023-03-02T03:09:50;14.63;;;5.25;;
65753;SDS011;52488;47.502;18.940;2023-03-02T03:11:07;12.48;;;6.35;;
65753;SDS011;52488;47.502;18.940;2023-03-02T03:12:16;10.23;;;5.30;;
65753;SDS011;52488;47.502;18.940;2023-03-02T03:13:23;11.25;;;5.22;;
65753;SDS011;52488;47.502;18.940;2023-03-02T03:14:32;10.45;;;5.25;;
65753;SDS011;52488;47.502;18.940;2023-03-02T03:15:38;8.65;;;4.60;;
65753;SDS011;52488;47.502;18.940;2023-03-02T03:16:41;13.60;;;5.93;;
65753;SDS011;52488;47.502;18.940;2023-03-02T03:17:54;9.35;;;5.10;;
65753;SDS011;52488;47.502;18.940;2023-03-02T03:19:00;8.38;;;4.25;;
65753;SDS011;52488;47.502;18.940;2023-03-02T03:20:08;10.77;;;5.03;;
65753;SDS011;52488;47.502;18.940;2023-03-02T03:21:14;9.07;;;4.65;;
65753;SDS011;52488;47.502;18.940;2023-03-02T03:22:20;9.35;;;4.70;;
65753;SDS011;52488;47.502;18.940;2023-03-02T03:23:23;10.32;;;4.87;;
65753;SDS011;52488;47.502;18.940;2023-03-02T03:24:27;11.27;;;4.72;;
65753;SDS011;52488;47.502;18.940;2023-03-02T03:25:31;7.87;;;4.35;;
65753;SDS011;52488;47.502;18.940;2023-03-02T03:26:36;10.25;;;4.37;;
65753;SDS011;52488;47.502;18.940;2023-03-02T03:27:42;8.32;;;4.78;;
65753;SDS011;52488;47.502;18.940;2023-03-02T03:28:45;8.50;;;4.07;;
65753;SDS011;52488;47.502;18.940;2023-03-02T03:29:49;8.27;;;4.45;;
65753;SDS011;52488;47.502;18.940;2023-03-02T03:30:52;9.40;;;4.80;;
65753;SDS011;52488;47.502;18.940;2023-03-02T03:31:56;7.50;;;4.40;;
65753;SDS011;52488;47.502;18.940;2023-03-02T03:32:59;10.35;;;4.32;;
65753;SDS011;52488;47.502;18.940;2023-03-02T03:34:02;9.68;;;4.28;;
65753;SDS011;52488;47.502;18.940;2023-03-02T03:35:06;7.90;;;3.85;;
65753;SDS011;52488;47.502;18.940;2023-03-02T03:36:13;11.57;;;4.60;;
65753;SDS011;52488;47.502;18.940;2023-03-02T03:37:17;10.18;;;4.45;;
65753;SDS011;52488;47.502;18.940;2023-03-02T03:38:22;7.62;;;3.97;;
65753;SDS011;52488;47.502;18.940;2023-03-02T03:39:29;6.47;;;3.75;;
65753;SDS011;52488;47.502;18.940;2023-03-02T03:40:32;7.82;;;3.75;;
65753;SDS011;52488;47.502;18.940;2023-03-02T03:41:35;8.05;;;3.95;;
65753;SDS011;52488;47.502;18.940;2023-03-02T03:42:38;11.45;;;4.35;;
65753;SDS011;52488;47.502;18.940;2023-03-02T03:43:42;8.15;;;4.20;;
65753;SDS011;52488;47.502;18.940;2023-03-02T03:44:44;9.65;;;4.20;;
65753;SDS011;52488;47.502;18.940;2023-03-02T03:45:48;8.02;;;3.58;;
65753;SDS011;52488;47.502;18.940;2023-03-02T03:46:53;8.13;;;3.72;;
65753;SDS011;52488;47.502;18.940;2023-03-02T03:47:56;10.93;;;4.30;;
65753;SDS011;52488;47.502;18.940;2023-03-02T03:49:00;7.80;;;3.97;;
65753;SDS011;52488;47.502;18.940;2023-03-02T03:50:03;8.82;;;3.80;;
65753;SDS011;52488;47.502;18.940;2023-03-02T03:51:08;6.00;;;3.67;;
65753;SDS011;52488;47.502;18.940;2023-03-02T03:52:12;7.28;;;3.85;;
65753;SDS011;52488;47.502;18.940;2023-03-02T03:53:15;7.43;;;4.05;;
65753;SDS011;52488;47.502;18.940;2023-03-02T03:54:18;7.28;;;4.12;;
65753;SDS011;52488;47.502;18.940;2023-03-02T03:55:21;9.40;;;3.97;;
65753;SDS011;52488;47.502;18.940;2023-03-02T03:56:26;6.55;;;4.00;;
65753;SDS011;52488;47.502;18.940;2023-03-02T03:57:31;7.93;;;4.20;;
65753;SDS011;52488;47.502;18.940;2023-03-02T03:58:37;7.07;;;3.65;;
65753;SDS011;52488;47.502;18.940;2023-03-02T03:59:41;9.38;;;3.80;;
65753;SDS011;52488;47.502;18.940;2023-03-02T04:00:44;7.55;;;4.00;;
65753;SDS011;52488;47.502;18.940;2023-03-02T04:01:50;9.02;;;4.37;;
65753;SDS011;52488;47.502;18.940;2023-03-02T04:02:56;6.28;;;3.78;;
65753;SDS011;52488;47.502;18.940;2023-03-02T04:04:00;7.85;;;4.05;;
65753;SDS011;52488;47.502;18.940;2023-03-02T04:05:07;9.32;;;4.20;;
65753;SDS011;52488;47.502;18.940;2023-03-02T04:06:11;8.15;;;4.47;;
65753;SDS011;52488;47.502;18.940;2023-03-02T04:07:20;6.55;;;3.40;;
65753;SDS011;52488;47.502;18.940;2023-03-02T04:08:23;6.68;;;4.00;;
65753;SDS011;52488;47.502;18.940;2023-03-02T04:09:26;7.15;;;4.25;;
65753;SDS011;52488;47.502;18.940;2023-03-02T04:10:30;8.23;;;4.25;;
65753;SDS011;52488;47.502;18.940;2023-03-02T04:11:35;9.27;;;3.97;;
65753;SDS011;52488;47.502;18.940;2023-03-02T04:12:40;9.27;;;3.80;;
65753;SDS011;52488;47.502;18.940;2023-03-02T04:13:44;9.38;;;4.32;;
65753;SDS011;52488;47.502;18.940;2023-03-02T04:14:47;9.48;;;4.15;;
65753;SDS011;52488;47.502;18.940;2023-03-02T04:15:50;7.85;;;3.80;;
65753;SDS011;52488;47.502;18.940;2023-03-02T04:16:53;9.30;;;4.60;;
65753;SDS011;52488;47.502;18.940;2023-03-02T04:17:56;7.55;;;4.03;;
65753;SDS011;52488;47.502;18.940;2023-03-02T04:19:02;4.95;;;3.37;;
65753;SDS011;52488;47.502;18.940;2023-03-02T04:20:12;9.57;;;4.00;;
65753;SDS011;52488;47.502;18.940;2023-03-02T04:21:23;8.95;;;4.15;;
65753;SDS011;52488;47.502;18.940;2023-03-02T04:22:26;6.90;;;4.10;;
65753;SDS011;52488;47.502;18.940;2023-03-02T04:23:29;7.68;;;3.90;;
65753;SDS011;52488;47.502;18.940;2023-03-02T04:24:32;6.40;;;3.87;;
65753;SDS011;52488;47.502;18.940;2023-03-02T04:25:35;12.15;;;4.50;;
65753;SDS011;52488;47.502;18.940;2023-03-02T04:26:39;8.55;;;4.30;;
65753;SDS011;52488;47.502;18.940;2023-03-02T04:27:45;6.80;;;4.35;;
65753;SDS011;52488;47.502;18.940;2023-03-02T04:28:50;5.90;;;3.67;;
65753;SDS011;52488;47.502;18.940;2023-03-02T04:29:53;9.65;;;4.22;;
65753;SDS011;52488;47.502;18.940;2023-03-02T04:30:56;7.68;;;3.53;;
65753;SDS011;52488;47.502;18.940;2023-03-02T04:31:59;7.60;;;4.03;;
65753;SDS011;52488;47.502;18.940;2023-03-02T04:33:02;6.20;;;3.72;;
65753;SDS011;52488;47.502;18.940;2023-03-02T04:34:06;8.32;;;4.25;;
65753;SDS011;52488;47.502;18.940;2023-03-02T04:35:11;8.65;;;3.75;;
65753;SDS011;52488;47.502;18.940;2023-03-02T04:36:14;8.43;;;3.80;;
65753;SDS011;52488;47.502;18.940;2023-03-02T04:37:18;6.57;;;3.83;;
65753;SDS011;52488;47.502;18.940;2023-03-02T04:38:21;6.07;;;4.00;;
65753;SDS011;52488;47.502;18.940;2023-03-02T04:39:24;8.68;;;3.90;;
65753;SDS011;52488;47.502;18.940;2023-03-02T04:40:28;5.28;;;3.70;;
65753;SDS011;52488;47.502;18.940;2023-03-02T04:41:31;7.55;;;3.58;;
65753;SDS011;52488;47.502;18.940;2023-03-02T04:42:34;10.60;;;3.87;;
65753;SDS011;52488;47.502;18.940;2023-03-02T04:43:37;6.53;;;3.22;;
65753;SDS011;52488;47.502;18.940;2023-03-02T04:44:41;6.85;;;3.78;;
65753;SDS011;52488;47.502;18.940;2023-03-02T04:45:44;7.87;;;4.05;;
65753;SDS011;52488;47.502;18.940;2023-03-02T04:46:47;8.82;;;3.85;;
65753;SDS011;52488;47.502;18.940;2023-03-02T04:47:51;5.87;;;3.78;;
65753;SDS011;52488;47.502;18.940;2023-03-02T04:48:54;7.62;;;3.62;;
65753;SDS011;52488;47.502;18.940;2023-03-02T04:49:59;7.72;;;4.20;;
65753;SDS011;52488;47.502;18.940;2023-03-02T04:51:03;9.90;;;3.65;;
65753;SDS011;52488;47.502;18.940;2023-03-02T04:52:06;6.97;;;3.62;;
65753;SDS011;52488;47.502;18.940;2023-03-02T04:53:09;8.32;;;3.55;;
65753;SDS011;52488;47.502;18.940;2023-03-02T04:54:15;8.00;;;4.00;;
65753;SDS011;52488;47.502;18.940;2023-03-02T04:55:21;6.20;;;3.90;;
65753;SDS011;52488;47.502;18.940;2023-03-02T04:56:27;9.05;;;3.87;;
65753;SDS011;52488;47.502;18.940;2023-03-02T04:57:30;10.95;;;4.55;;
65753;SDS011;52488;47.502;18.940;2023-03-02T04:58:33;9.77;;;3.97;;
65753;SDS011;52488;47.502;18.940;2023-03-02T04:59:37;10.68;;;4.12;;
65753;SDS011;52488;47.502;18.940;2023-03-02T05:00:40;6.82;;;3.67;;
65753;SDS011;52488;47.502;18.940;2023-03-02T05:01:44;6.60;;;3.90;;
65753;SDS011;52488;47.502;18.940;2023-03-02T05:02:48;8.93;;;4.12;;
65753;SDS011;52488;47.502;18.940;2023-03-02T05:03:51;7.82;;;3.33;;
65753;SDS011;52488;47.502;18.940;2023-03-02T05:04:54;10.60;;;4.32;;
65753;SDS011;52488;47.502;18.940;2023-03-02T05:05:58;7.05;;;3.60;;
65753;SDS011;52488;47.502;18.940;2023-03-02T05:07:01;6.32;;;3.90;;
65753;SDS011;52488;47.502;18.940;2023-03-02T05:08:04;7.07;;;3.78;;
65753;SDS011;52488;47.502;18.940;2023-03-02T05:09:07;7.93;;;3.95;;
65753;SDS011;52488;47.502;18.940;2023-03-02T05:10:11;8.65;;;3.65;;
65753;SDS011;52488;47.502;18.940;2023-03-02T05:11:20;8.35;;;3.25;;
65753;SDS011;52488;47.502;18.940;2023-03-02T05:12:26;6.53;;;3.67;;
65753;SDS011;52488;47.502;18.940;2023-03-02T05:13:29;7.90;;;3.72;;
65753;SDS011;52488;47.502;18.940;2023-03-02T05:14:32;6.25;;;3.62;;
65753;SDS011;52488;47.502;18.940;2023-03-02T05:15:37;7.22;;;3.75;;
65753;SDS011;52488;47.502;18.940;2023-03-02T05:16:42;6.70;;;3.47;;
65753;SDS011;52488;47.502;18.940;2023-03-02T05:17:45;7.28;;;3.58;;
65753;SDS011;52488;47.502;18.940;2023-03-02T05:18:48;9.05;;;4.00;;
65753;SDS011;52488;47.502;18.940;2023-03-02T05:19:51;6.70;;;3.45;;
65753;SDS011;52488;47.502;18.940;2023-03-02T05:20:55;6.00;;;3.55;;
65753;SDS011;52488;47.502;18.940;2023-03-02T05:21:59;7.93;;;3.83;;
65753;SDS011;52488;47.502;18.940;2023-03-02T05:23:03;7.85;;;3.80;;
65753;SDS011;52488;47.502;18.940;2023-03-02T05:24:09;11.45;;;4.30;;
65753;SDS011;52488;47.502;18.940;2023-03-02T05:25:13;10.43;;;3.85;;
65753;SDS011;52488;47.502;18.940;2023-03-02T05:26:16;7.03;;;3.83;;
65753;SDS011;52488;47.502;18.940;2023-03-02T05:27:20;13.13;;;3.95;;
65753;SDS011;52488;47.502;18.940;2023-03-02T05:28:24;12.00;;;3.87;;
65753;SDS011;52488;47.502;18.940;2023-03-02T05:29:28;13.18;;;3.75;;
65753;SDS011;52488;47.502;18.940;2023-03-02T05:30:32;7.28;;;3.50;;
65753;SDS011;52488;47.502;18.940;2023-03-02T05:31:40;11.60;;;3.50;;
65753;SDS011;52488;47.502;18.940;2023-03-02T05:32:45;5.28;;;3.37;;
65753;SDS011;52488;47.502;18.940;2023-03-02T05:33:48;8.32;;;3.60;;
65753;SDS011;52488;47.502;18.940;2023-03-02T05:34:52;7.47;;;3.60;;
65753;SDS011;52488;47.502;18.940;2023-03-02T05:35:55;8.30;;;3.08;;
65753;SDS011;52488;47.502;18.940;2023-03-02T05:36:58;7.35;;;3.30;;
65753;SDS011;52488;47.502;18.940;2023-03-02T05:38:02;7.50;;;3.65;;
65753;SDS011;52488;47.502;18.940;2023-03-02T05:39:06;6.95;;;3.50;;
65753;SDS011;52488;47.502;18.940;2023-03-02T05:40:11;8.90;;;4.12;;
65753;SDS011;52488;47.502;18.940;2023-03-02T05:41:18;6.87;;;3.25;;
65753;SDS011;52488;47.502;18.940;2023-03-02T05:42:21;8.10;;;3.60;;
65753;SDS011;52488;47.502;18.940;2023-03-02T05:43:24;8.18;;;3.53;;
65753;SDS011;52488;47.502;18.940;2023-03-02T05:44:27;9.88;;;3.45;;
65753;SDS011;52488;47.502;18.940;2023-03-02T05:45:32;12.65;;;3.87;;
65753;SDS011;52488;47.502;18.940;2023-03-02T05:46:38;11.73;;;3.80;;
65753;SDS011;52488;47.502;18.940;2023-03-02T05:47:42;8.65;;;3.35;;
65753;SDS011;52488;47.502;18.940;2023-03-02T05:48:45;6.90;;;3.42;;
65753;SDS011;52488;47.502;18.940;2023-03-02T05:49:48;6.72;;;3.30;;
65753;SDS011;52488;47.502;18.940;2023-03-02T05:50:52;7.25;;;3.33;;
65753;SDS011;52488;47.502;18.940;2023-03-02T05:51:54;7.22;;;3.58;;
65753;SDS011;52488;47.502;18.940;2023-03-02T05:52:58;7.68;;;3.55;;
65753;SDS011;52488;47.502;18.940;2023-03-02T05:54:03;6.43;;;3.33;;
65753;SDS011;52488;47.502;18.940;2023-03-02T05:55:06;7.20;;;3.60;;
65753;SDS011;52488;47.502;18.940;2023-03-02T05:56:10;6.57;;;3.00;;
65753;SDS011;52488;47.502;18.940;2023-03-02T05:57:13;6.62;;;3.22;;
65753;SDS011;52488;47.502;18.940;2023-03-02T05:58:17;6.32;;;3.55;;
65753;SDS011;52488;47.502;18.940;2023-03-02T05:59:21;8.88;;;3.40;;
65753;SDS011;52488;47.502;18.940;2023-03-02T06:00:24;6.05;;;3.47;;
65753;SDS011;52488;47.502;18.940;2023-03-02T06:01:28;6.93;;;3.20;;
65753;SDS011;52488;47.502;18.940;2023-03-02T06:02:31;5.85;;;2.78;;
65753;SDS011;52488;47.502;18.940;2023-03-02T06:03:34;6.62;;;3.28;;
65753;SDS011;52488;47.502;18.940;2023-03-02T06:04:37;5.37;;;3.35;;
65753;SDS011;52488;47.502;18.940;2023-03-02T06:05:44;9.55;;;3.25;;
65753;SDS011;52488;47.502;18.940;2023-03-02T06:06:52;6.72;;;3.08;;
65753;SDS011;52488;47.502;18.940;2023-03-02T06:07:55;6.93;;;3.15;;
65753;SDS011;52488;47.502;18.940;2023-03-02T06:09:01;4.80;;;3.20;;
65753;SDS011;52488;47.502;18.940;2023-03-02T06:10:04;4.80;;;2.80;;
65753;SDS011;52488;47.502;18.940;2023-03-02T06:11:09;7.40;;;3.05;;
65753;SDS011;52488;47.502;18.940;2023-03-02T06:12:13;3.83;;;2.83;;
65753;SDS011;52488;47.502;18.940;2023-03-02T06:13:16;9.30;;;3.35;;
65753;SDS011;52488;47.502;18.940;2023-03-02T06:14:19;7.28;;;3.35;;
65753;SDS011;52488;47.502;18.940;2023-03-02T06:15:22;6.25;;;3.15;;
65753;SDS011;52488;47.502;18.940;2023-03-02T06:16:26;6.25;;;2.95;;
65753;SDS011;52488;47.502;18.940;2023-03-02T06:17:29;6.68;;;3.10;;
65753;SDS011;52488;47.502;18.940;2023-03-02T06:18:32;4.75;;;2.80;;
65753;SDS011;52488;47.502;18.940;2023-03-02T06:19:36;3.75;;;2.78;;
65753;SDS011;52488;47.502;18.940;2023-03-02T06:20:39;7.75;;;3.50;;
65753;SDS011;52488;47.502;18.940;2023-03-02T06:21:43;8.02;;;3.28;;
65753;SDS011;52488;47.502;18.940;2023-03-02T06:22:46;6.55;;;3.72;;
65753;SDS011;52488;47.502;18.940;2023-03-02T06:23:49;7.00;;;3.10;;
65753;SDS011;52488;47.502;18.940;2023-03-02T06:24:52;6.45;;;3.28;;
65753;SDS011;52488;47.502;18.940;2023-03-02T06:25:58;7.12;;;3.00;;
65753;SDS011;52488;47.502;18.940;2023-03-02T06:27:01;6.43;;;2.95;;
65753;SDS011;52488;47.502;18.940;2023-03-02T06:28:04;4.35;;;2.92;;
65753;SDS011;52488;47.502;18.940;2023-03-02T06:29:08;7.03;;;2.97;;
65753;SDS011;52488;47.502;18.940;2023-03-02T06:30:15;6.93;;;3.35;;
65753;SDS011;52488;47.502;18.940;2023-03-02T06:31:20;7.80;;;3.35;;
65753;SDS011;52488;47.502;18.940;2023-03-02T06:32:23;7.50;;;2.87;;